createdAt,value
2022-12-04T00:01:59.246Z,8.52
2022-12-04T00:04:27.555Z,8.63
2022-12-04T00:06:58.878Z,6.88
2022-12-04T00:09:27.567Z,8.30
2022-12-04T00:11:57.313Z,8.82
2022-12-04T00:14:25.770Z,8.70
2022-12-04T00:16:54.193Z,8.63
2022-12-04T00:19:22.488Z,9.23
2022-12-04T00:21:51.352Z,10.32
2022-12-04T00:24:19.642Z,9.25
2022-12-04T00:26:48.127Z,9.63
2022-12-04T00:29:17.855Z,10.15
2022-12-04T00:31:46.460Z,9.80
2022-12-04T00:34:14.863Z,8.80
2022-12-04T00:36:43.050Z,9.32
2022-12-04T00:39:11.324Z,9.13
2022-12-04T00:41:39.732Z,8.48
2022-12-04T00:44:07.909Z,10.90
2022-12-04T00:46:37.498Z,8.75
2022-12-04T00:49:05.870Z,8.85
2022-12-04T00:51:34.099Z,9.88
2022-12-04T00:54:02.445Z,9.98
2022-12-04T00:56:30.763Z,8.70
2022-12-04T00:59:01.752Z,9.00
2022-12-04T01:01:31.599Z,8.85
2022-12-04T01:04:01.531Z,9.85
2022-12-04T01:06:32.471Z,9.13
2022-12-04T01:09:03.259Z,8.43
2022-12-04T01:11:32.372Z,10.10
2022-12-04T01:14:01.412Z,8.57
2022-12-04T01:16:32.419Z,9.75
2022-12-04T01:21:30.575Z,8.23
2022-12-04T01:23:59.827Z,8.80
2022-12-04T01:26:28.596Z,8.75
2022-12-04T01:28:56.872Z,8.32
2022-12-04T01:31:25.602Z,10.63
2022-12-04T01:33:54.633Z,8.90
2022-12-04T01:36:29.261Z,8.45
2022-12-04T01:38:57.828Z,9.73
2022-12-04T01:41:30.563Z,8.68
2022-12-04T01:44:23.913Z,8.85
2022-12-04T01:46:53.587Z,8.80
2022-12-04T01:49:27.208Z,8.93
2022-12-04T01:52:02.288Z,8.02
2022-12-04T01:54:36.084Z,8.75
2022-12-04T01:57:09.499Z,9.45
2022-12-04T01:59:42.844Z,8.98
2022-12-04T02:02:15.798Z,8.93
2022-12-04T02:04:45.041Z,10.07
2022-12-04T02:07:14.785Z,9.90
2022-12-04T02:09:45.482Z,8.95
2022-12-04T02:12:22.564Z,9.50
2022-12-04T02:15:01.616Z,9.20
2022-12-04T02:17:40.244Z,9.18
2022-12-04T02:20:25.723Z,10.40
2022-12-04T02:23:27.040Z,9.68
2022-12-04T02:28:41.088Z,9.60
2022-12-04T02:31:17.969Z,9.65
2022-12-04T02:33:55.076Z,8.98
2022-12-04T02:36:25.492Z,10.95
2022-12-04T02:39:00.210Z,9.13
2022-12-04T02:41:37.094Z,9.40
2022-12-04T02:44:13.903Z,8.20
2022-12-04T02:46:46.325Z,10.00
2022-12-04T02:49:20.960Z,9.60
2022-12-04T02:51:51.406Z,8.23
2022-12-04T02:54:26.871Z,9.25
2022-12-04T02:56:56.907Z,9.93
2022-12-04T02:59:32.379Z,10.15
2022-12-04T03:02:09.574Z,9.95
2022-12-04T03:04:40.850Z,9.23
2022-12-04T03:07:15.396Z,8.85
2022-12-04T03:09:47.967Z,9.95
2022-12-04T03:12:21.544Z,9.82
2022-12-04T03:14:57.528Z,8.77
2022-12-04T03:17:31.316Z,9.98
2022-12-04T03:20:07.575Z,9.55
2022-12-04T03:22:41.025Z,9.13
2022-12-04T03:25:11.321Z,9.70
2022-12-04T03:27:47.713Z,8.50
2022-12-04T03:30:20.909Z,9.82
2022-12-04T03:32:56.844Z,9.82
2022-12-04T03:35:29.949Z,10.23
2022-12-04T03:38:05.057Z,9.75
2022-12-04T03:40:38.991Z,9.63
2022-12-04T03:43:16.333Z,9.43
2022-12-04T03:45:51.850Z,10.40
2022-12-04T03:48:27.482Z,10.57
2022-12-04T03:51:01.908Z,9.88
2022-12-04T03:53:36.015Z,9.93
2022-12-04T03:56:11.283Z,10.60
2022-12-04T03:58:44.651Z,10.68
2022-12-04T04:01:16.867Z,9.82
2022-12-04T04:03:49.739Z,9.63
2022-12-04T04:06:23.353Z,9.88
2022-12-04T04:08:56.806Z,9.27
2022-12-04T04:11:31.724Z,8.70
2022-12-04T04:14:26.247Z,9.98
2022-12-04T04:17:21.873Z,10.15
2022-12-04T04:20:18.241Z,9.73
2022-12-04T04:23:05.271Z,10.18
2022-12-04T04:25:35.145Z,11.25
2022-12-04T04:28:03.387Z,11.38
2022-12-04T04:30:35.896Z,11.57
2022-12-04T04:33:12.295Z,9.50
2022-12-04T04:35:50.798Z,9.73
2022-12-04T04:38:27.019Z,9.20
2022-12-04T04:40:59.904Z,10.40
2022-12-04T04:43:34.055Z,11.02
2022-12-04T04:46:07.363Z,10.40
2022-12-04T04:48:42.106Z,10.20
2022-12-04T04:51:12.087Z,9.60
2022-12-04T04:53:47.007Z,9.15
2022-12-04T04:56:15.716Z,9.90
2022-12-04T04:58:44.695Z,9.32
2022-12-04T05:01:16.262Z,10.07
2022-12-04T05:03:46.301Z,9.98
2022-12-04T05:06:14.876Z,9.00
2022-12-04T05:08:44.255Z,10.82
2022-12-04T05:11:15.586Z,9.07
2022-12-04T05:13:44.337Z,10.07
2022-12-04T05:16:15.371Z,9.45
2022-12-04T10:37:18.795Z,6.80
2022-12-04T10:39:54.482Z,6.15
2022-12-04T10:42:32.604Z,7.47
2022-12-04T10:45:00.863Z,6.30
2022-12-04T10:47:29.171Z,6.13
2022-12-04T10:50:02.011Z,6.82
2022-12-04T10:52:31.650Z,6.30
2022-12-04T10:55:02.083Z,6.45
2022-12-04T10:57:39.574Z,6.57
2022-12-04T11:00:28.791Z,6.32
2022-12-04T11:03:00.979Z,6.25
2022-12-04T11:05:33.994Z,6.80
2022-12-04T11:08:06.634Z,6.68
2022-12-04T11:10:39.338Z,6.95
2022-12-04T11:13:16.957Z,6.18
2022-12-04T11:15:47.569Z,6.30
2022-12-04T11:18:20.964Z,6.68
2022-12-04T11:20:54.963Z,6.18
2022-12-04T11:23:26.019Z,5.80
2022-12-04T11:28:41.700Z,6.20
2022-12-04T11:31:17.288Z,6.18
2022-12-04T11:33:49.908Z,6.50
2022-12-04T11:36:24.004Z,6.63
2022-12-04T11:39:05.380Z,6.68
2022-12-04T11:41:34.734Z,6.45
2022-12-04T11:44:03.039Z,6.63
2022-12-04T11:46:34.300Z,6.15
2022-12-04T11:49:04.256Z,6.63
2022-12-04T11:51:47.965Z,6.35
2022-12-04T11:54:31.335Z,6.53
2022-12-04T11:57:12.472Z,6.90
2022-12-04T12:02:55.072Z,6.22
2022-12-04T12:05:48.308Z,6.63
2022-12-04T12:08:31.625Z,6.82
2022-12-04T12:11:12.180Z,6.82
2022-12-04T12:13:54.597Z,5.57
2022-12-04T12:16:34.804Z,6.40
2022-12-04T12:19:30.852Z,6.60
2022-12-04T12:22:08.741Z,6.47
2022-12-04T12:24:51.311Z,6.55
2022-12-04T12:27:48.018Z,6.75
2022-12-04T12:30:20.301Z,6.00
2022-12-04T12:33:06.062Z,6.05
2022-12-04T12:35:40.246Z,5.88
2022-12-04T12:38:13.945Z,7.10
2022-12-04T12:40:46.355Z,6.15
2022-12-04T12:43:23.316Z,6.90
2022-12-04T12:45:56.720Z,6.78
2022-12-04T12:48:32.469Z,5.95
2022-12-04T12:51:29.155Z,6.68
2022-12-04T12:54:00.464Z,6.13
2022-12-04T12:56:35.165Z,7.35
2022-12-04T12:59:07.384Z,7.03
2022-12-04T13:01:48.366Z,6.63
2022-12-04T13:06:58.962Z,11.95
2022-12-04T13:09:31.940Z,7.90
2022-12-04T13:12:03.801Z,6.13
2022-12-04T13:14:33.518Z,6.30
2022-12-04T13:17:05.752Z,6.47
2022-12-04T13:19:43.273Z,7.18
2022-12-04T13:22:20.147Z,7.22
2022-12-04T13:25:11.386Z,7.13
2022-12-04T13:30:22.990Z,6.95
2022-12-04T13:33:15.766Z,7.35
2022-12-04T13:36:16.906Z,5.97
2022-12-04T13:39:18.600Z,7.40
2022-12-04T13:41:46.941Z,6.60
2022-12-04T13:44:21.669Z,7.55
2022-12-04T13:46:59.988Z,6.53
2022-12-04T13:49:31.449Z,7.35
2022-12-04T13:52:02.593Z,6.97
2022-12-04T13:54:34.704Z,6.38
2022-12-04T13:57:22.061Z,7.35
2022-12-04T13:59:51.256Z,6.68
2022-12-04T14:02:29.174Z,7.00
2022-12-04T14:05:03.180Z,7.88
2022-12-04T14:07:35.302Z,7.55
2022-12-04T14:10:06.941Z,7.18
2022-12-04T14:12:40.038Z,6.97
2022-12-04T14:15:21.588Z,6.50
2022-12-04T14:18:02.212Z,7.35
2022-12-04T14:20:33.252Z,5.50
2022-12-04T14:25:57.780Z,7.10
2022-12-04T14:28:29.013Z,8.63
2022-12-04T14:31:15.929Z,7.15
2022-12-04T14:33:51.605Z,7.18
2022-12-04T14:36:25.783Z,7.30
2022-12-04T14:39:25.904Z,5.93
2022-12-04T14:42:05.304Z,6.95
2022-12-04T14:44:33.968Z,6.70
2022-12-04T14:47:15.332Z,6.40
2022-12-04T14:49:59.530Z,6.72
2022-12-04T14:52:34.605Z,6.45
2022-12-04T14:55:15.847Z,6.95
2022-12-04T15:00:18.711Z,7.88
2022-12-04T15:02:50.657Z,6.93
2022-12-04T15:05:26.559Z,6.22
2022-12-04T15:07:58.442Z,6.35
2022-12-04T15:10:46.631Z,5.97
2022-12-04T15:13:26.348Z,6.97
2022-12-04T15:15:55.286Z,6.30
2022-12-04T15:18:23.784Z,6.75
2022-12-04T15:21:00.862Z,6.30
2022-12-04T15:23:33.377Z,6.00
2022-12-04T15:26:04.580Z,7.32
2022-12-04T15:28:36.431Z,6.72
2022-12-04T15:31:11.727Z,6.53
2022-12-04T15:33:41.711Z,7.30
2022-12-04T15:36:19.063Z,6.40
2022-12-04T15:38:49.377Z,6.40
2022-12-04T15:41:35.418Z,5.40
2022-12-04T15:44:20.632Z,7.63
2022-12-04T15:46:49.230Z,6.07
2022-12-04T15:49:21.638Z,7.38
2022-12-04T15:51:51.406Z,7.35
2022-12-04T15:54:25.109Z,6.97
2022-12-04T15:57:05.887Z,6.88
2022-12-04T15:59:36.315Z,7.13
2022-12-04T16:02:20.978Z,6.07
2022-12-04T16:04:49.271Z,6.85
2022-12-04T16:07:25.841Z,6.47
2022-12-04T16:10:02.651Z,7.45
2022-12-04T16:12:33.801Z,8.13
2022-12-04T16:15:02.054Z,6.95
2022-12-04T16:17:33.093Z,7.38
2022-12-04T16:22:31.920Z,7.03
2022-12-04T16:25:00.445Z,6.82
2022-12-04T16:27:29.165Z,7.68
2022-12-04T16:29:57.455Z,7.93
2022-12-04T16:32:31.029Z,6.93
2022-12-04T16:34:59.493Z,7.13
2022-12-04T16:37:29.948Z,7.25
2022-12-04T16:39:59.882Z,6.03
2022-12-04T16:42:30.547Z,7.30
2022-12-04T16:44:59.910Z,7.10
2022-12-04T16:47:28.768Z,6.63
2022-12-04T16:49:56.981Z,6.05
2022-12-04T16:52:25.382Z,6.35
2022-12-04T16:54:53.717Z,6.32
2022-12-04T16:57:23.417Z,6.75
2022-12-04T16:59:51.586Z,7.07
2022-12-04T17:02:27.479Z,6.55
2022-12-04T17:04:57.825Z,6.55
2022-12-04T17:07:26.638Z,6.25
2022-12-04T17:09:54.860Z,6.03
2022-12-04T17:12:24.654Z,6.50
2022-12-04T17:14:52.809Z,7.13
2022-12-04T17:17:21.191Z,6.32
2022-12-04T17:19:49.441Z,6.50
2022-12-04T17:22:20.992Z,6.93
2022-12-04T17:24:54.433Z,6.22
2022-12-04T17:27:26.730Z,6.72
2022-12-04T17:29:55.028Z,6.65
2022-12-04T17:32:23.463Z,6.43
2022-12-04T17:34:55.044Z,7.95
2022-12-04T17:37:23.743Z,6.63
2022-12-04T17:39:52.104Z,6.78
2022-12-04T17:42:20.433Z,6.70
2022-12-04T17:44:50.068Z,6.85
2022-12-04T17:47:18.645Z,6.38
2022-12-04T17:49:46.907Z,7.10
2022-12-04T17:52:15.556Z,6.82
2022-12-04T17:54:43.858Z,7.25
2022-12-04T17:57:12.135Z,7.57
2022-12-04T17:59:41.213Z,7.90
2022-12-04T18:02:12.113Z,7.15
2022-12-04T18:04:40.532Z,6.43
2022-12-04T18:07:08.923Z,7.03
2022-12-04T18:09:37.958Z,7.20
2022-12-04T18:12:06.656Z,7.65
2022-12-04T18:14:35.351Z,7.55
2022-12-04T18:17:04.362Z,6.15
2022-12-04T18:19:34.271Z,8.55
2022-12-04T18:22:02.518Z,7.40
2022-12-04T18:24:30.997Z,7.40
2022-12-04T18:26:59.240Z,7.60
2022-12-04T18:29:28.019Z,7.07
2022-12-04T18:31:56.949Z,7.43
2022-12-04T18:34:25.814Z,7.90
2022-12-04T18:36:55.554Z,7.00
2022-12-04T18:39:26.227Z,6.97
2022-12-04T18:41:56.984Z,6.95
2022-12-04T18:44:26.000Z,7.50
2022-12-04T18:46:54.318Z,7.25
2022-12-04T18:49:22.635Z,7.60
2022-12-04T18:51:50.992Z,7.00
2022-12-04T18:54:23.857Z,7.63
2022-12-04T18:56:53.069Z,8.25
2022-12-04T18:59:24.395Z,7.60
2022-12-04T19:01:54.401Z,7.60
2022-12-04T19:04:24.600Z,8.00
2022-12-04T19:06:55.501Z,8.70
2022-12-04T19:10:02.115Z,6.75
2022-12-04T19:12:16.335Z,6.57
2022-12-04T19:14:44.623Z,7.22
2022-12-04T19:17:13.249Z,6.82
2022-12-04T19:19:41.534Z,7.15
2022-12-04T19:22:09.839Z,7.38
2022-12-04T19:24:39.634Z,7.65
2022-12-04T19:27:11.942Z,7.13
2022-12-04T19:29:41.067Z,8.02
2022-12-04T19:32:10.758Z,7.32
2022-12-04T19:34:39.136Z,6.50
2022-12-04T19:37:08.004Z,7.45
2022-12-04T19:39:38.485Z,7.18
2022-12-04T19:42:07.451Z,5.82
2022-12-04T19:44:51.480Z,6.63
2022-12-04T19:47:20.254Z,6.90
2022-12-04T19:49:48.929Z,6.95
2022-12-04T19:52:18.368Z,6.93
2022-12-04T19:54:48.266Z,8.60
2022-12-04T19:57:16.952Z,7.25
2022-12-04T19:59:46.831Z,7.20
2022-12-04T20:02:16.091Z,7.72
2022-12-04T20:04:44.801Z,7.30
2022-12-04T20:07:13.288Z,7.45
2022-12-04T20:09:43.140Z,7.68
2022-12-04T20:12:15.047Z,7.50
2022-12-04T20:14:43.478Z,7.53
2022-12-04T20:17:12.039Z,8.10
2022-12-04T20:19:40.801Z,8.57
2022-12-04T20:22:09.106Z,6.97
2022-12-04T20:24:37.338Z,7.78
2022-12-04T20:27:05.761Z,8.52
2022-12-04T20:29:35.671Z,8.30
2022-12-04T20:32:03.924Z,7.65
2022-12-04T20:34:32.267Z,7.80
2022-12-04T20:37:00.499Z,8.25
2022-12-04T20:39:29.660Z,7.90
2022-12-04T20:41:57.912Z,7.40
2022-12-04T20:44:26.136Z,8.18
2022-12-04T20:46:55.719Z,7.10
2022-12-04T20:49:23.927Z,7.72
2022-12-04T20:51:53.004Z,8.63
2022-12-04T20:54:23.617Z,7.80
2022-12-04T20:56:53.920Z,7.30
2022-12-04T20:59:24.374Z,7.43
2022-12-04T21:01:53.250Z,8.10
2022-12-04T21:04:23.715Z,7.55
2022-12-04T21:06:52.030Z,6.82
2022-12-04T21:09:24.256Z,7.32
2022-12-04T21:11:55.218Z,7.55
2022-12-04T21:14:42.861Z,8.55
2022-12-04T21:17:16.759Z,8.05
2022-12-04T21:19:47.536Z,8.70
2022-12-04T21:22:16.787Z,7.97
2022-12-04T21:24:45.146Z,7.25
2022-12-04T21:27:20.478Z,8.00
2022-12-04T21:29:50.005Z,7.07
2022-12-04T21:32:20.072Z,7.22
2022-12-04T21:34:51.874Z,7.13
2022-12-04T21:37:20.205Z,6.97
2022-12-04T21:39:48.585Z,6.80
2022-12-04T21:42:31.900Z,7.05
2022-12-04T21:45:00.598Z,8.68
2022-12-04T21:47:29.237Z,6.57
2022-12-04T21:49:59.162Z,7.38
2022-12-04T21:52:27.645Z,7.43
2022-12-04T21:54:56.636Z,7.82
2022-12-04T21:57:25.383Z,7.15
2022-12-04T21:59:54.250Z,7.20
2022-12-04T22:02:22.715Z,7.10
2022-12-04T22:04:51.090Z,6.65
2022-12-04T22:07:20.698Z,6.65
2022-12-04T22:09:49.117Z,7.22
2022-12-04T22:12:47.793Z,7.15
2022-12-04T22:15:06.664Z,6.65
2022-12-04T22:17:34.903Z,6.70
2022-12-04T22:20:03.262Z,7.20
2022-12-04T22:22:33.058Z,7.07
2022-12-04T22:25:01.788Z,6.78
2022-12-04T22:27:30.208Z,6.57
2022-12-04T22:29:58.674Z,7.40
2022-12-04T22:32:26.891Z,6.22
2022-12-04T22:34:55.059Z,7.68
2022-12-04T22:37:24.560Z,7.13
2022-12-04T22:39:54.181Z,6.85
2022-12-04T22:42:22.320Z,7.85
2022-12-04T22:44:50.635Z,7.72
2022-12-04T22:47:18.970Z,7.18
2022-12-04T22:49:47.246Z,6.88
2022-12-04T22:52:15.629Z,7.25
2022-12-04T22:54:43.908Z,7.50
2022-12-04T22:57:14.107Z,6.55
2022-12-04T22:59:42.340Z,6.60
2022-12-04T23:02:10.601Z,7.75
2022-12-04T23:04:39.034Z,7.22
2022-12-04T23:07:07.346Z,7.38
2022-12-04T23:09:35.950Z,6.50
2022-12-04T23:12:04.858Z,6.82
2022-12-04T23:14:36.947Z,7.50
2022-12-04T23:17:05.311Z,7.18
2022-12-04T23:19:33.590Z,6.72
2022-12-04T23:22:01.766Z,6.78
2022-12-04T23:24:30.000Z,7.28
2022-12-04T23:26:58.235Z,6.45
2022-12-04T23:29:51.936Z,7.13
2022-12-04T23:32:16.492Z,6.10
2022-12-04T23:34:44.686Z,7.25
2022-12-04T23:37:13.084Z,6.80
2022-12-04T23:39:41.263Z,7.18
2022-12-04T23:42:09.522Z,7.05
2022-12-04T23:44:37.835Z,7.10
2022-12-04T23:47:06.414Z,6.20
2022-12-04T23:49:36.188Z,7.10
2022-12-04T23:52:04.488Z,6.88
2022-12-04T23:54:35.039Z,5.60
2022-12-04T23:57:03.223Z,6.25
2022-12-04T23:59:31.431Z,6.93
